Time;durP1;ratioP1;P1;durP2;ratioP2;P2;SDS_P1;SDS_P2;PMS_P1;PMS_P2;Temp;Humidity;BMP_temperature;BMP_pressure;BME280_temperature;BME280_humidity;BME280_pressure;Samples;Min_cycle;Max_cycle;Signal;HPM_P1;HPM_P2
2021/12/12 00:01:39;;;;;;;6.25;5.50;;;;;;;;;;833154;71;33700;-78
2021/12/12 00:16:55;;;;;;;;;;;;;;;;;;;;;
2021/12/12 02:01:20;;;;;;;2.15;1.95;;;;;;;7.22;89.52;93087.91;833125;71;32704;-80
2021/12/12 05:31:17;;;;;;;1.70;1.60;;;;;;;5.37;81.58;93442.88;826774;71;33470;-77
2021/12/12 05:46:18;;;;;;;1.57;1.55;;;;;;;5.32;80.13;93473.63;833512;71;33081;-75
2021/12/12 06:01:11;;;;;;;1.60;1.55;;;;;;;5.25;79.74;93518.72;827831;71;30221;-76
2021/12/12 06:16:09;;;;;;;1.85;1.72;;;;;;;5.15;79.21;93533.11;818752;71;29704;-76
2021/12/12 06:31:10;;;;;;;2.00;1.90;;;;;;;5.11;79.62;93558.91;827659;71;30197;-73
2021/12/12 06:46:08;;;;;;;1.70;1.70;;;;;;;4.87;78.82;93601.00;827847;71;29701;-77
2021/12/12 07:01:15;;;;;;;1.40;1.40;;;;;;;4.63;78.84;93629.52;831954;70;30217;-76
2021/12/12 07:16:15;;;;;;;1.60;1.60;;;;;;;4.47;78.96;93642.60;824620;71;33149;-75
2021/12/12 07:31:21;;;;;;;2.85;2.65;;;;;;;4.35;80.20;93697.47;831458;71;32704;-75
2021/12/12 07:46:09;;;;;;;1.65;1.55;;;;;;;4.19;80.43;93714.93;833607;70;29690;-75
2021/12/12 08:01:16;;;;;;;1.70;1.60;;;;;;;4.13;81.16;93754.17;832564;70;31470;-77
2021/12/12 08:16:09;;;;;;;2.40;2.30;;;;;;;4.32;80.11;93768.63;832265;70;29736;-78
2021/12/12 08:31:20;;;;;;;3.05;2.85;;;;;;;4.34;79.83;93786.02;817540;71;32814;-75
2021/12/12 08:46:17;;;;;;;3.58;3.27;;;;;;;4.41;80.31;93799.50;813747;71;32852;-74
2021/12/12 09:16:31;;;;;;;2.90;2.60;;;;;;;4.15;78.78;93837.22;823344;70;29306;-77
2021/12/12 09:31:20;;;;;;;3.47;3.25;;;;;;;4.00;79.52;93853.61;812969;71;28779;-76
2021/12/12 09:46:39;;;;;;;5.08;3.50;;;;;;;3.95;79.43;93865.81;828373;71;29266;-77
2021/12/12 10:01:11;;;;;;;3.80;3.60;;;;;;;3.98;78.91;93882.17;820299;71;28811;-78
2021/12/12 10:16:26;;;;;;;4.50;4.10;;;;;;;4.76;78.24;93893.41;819404;71;28697;-77
2021/12/12 10:31:26;;;;;;;4.95;4.35;;;;;;;4.57;77.64;93902.84;822526;71;31880;-75
2021/12/12 10:46:34;;;;;;;4.62;4.17;;;;;;;4.45;78.76;93921.30;819630;71;31583;-75
2021/12/12 11:01:17;;;;;;;13.05;5.50;;;;;;;4.50;79.60;93929.59;816094;70;30456;-75
2021/12/12 11:16:29;;;;;;;5.65;5.10;;;;;;;4.56;80.07;93943.63;823708;71;31717;-77
2021/12/12 11:31:12;;;;;;;9.48;6.33;;;;;;;4.49;80.32;93951.44;826354;70;29232;-75
2021/12/12 11:46:28;;;;;;;7.65;5.20;;;;;;;4.46;79.51;93953.24;826695;71;32244;-78
2021/12/12 12:01:17;;;;;;;7.00;6.30;;;;;;;4.44;79.27;93952.23;833430;71;28725;-76
2021/12/12 12:16:30;;;;;;;6.70;5.97;;;;;;;4.35;79.29;93973.27;820919;71;28793;-78
2021/12/12 12:31:36;;;;;;;5.40;4.90;;;;;;;4.30;77.51;93979.74;828623;71;29285;-76
2021/12/12 12:46:45;;;;;;;5.33;4.60;;;;;;;4.17;78.39;93987.02;826353;71;29823;-78
2021/12/12 13:01:11;;;;;;;6.00;5.12;;;;;;;4.16;78.95;94000.28;821562;71;28832;-76
2021/12/12 13:16:17;;;;;;;6.05;5.20;;;;;;;4.12;78.97;94021.30;820719;71;29774;-80
2021/12/12 13:31:36;;;;;;;9.80;7.33;;;;;;;4.86;89.53;93999.69;822411;71;28847;-79
2021/12/12 13:46:27;;;;;;;6.00;5.40;;;;;;;4.21;77.98;94029.59;826084;71;29808;-80
2021/12/12 14:01:12;;;;;;;5.33;4.83;;;;;;;3.93;77.99;94040.47;821318;71;29426;-78
2021/12/12 14:16:19;;;;;;;5.65;5.15;;;;;;;3.74;78.22;94053.15;820042;71;31884;-80
2021/12/12 14:31:09;;;;;;;6.15;5.55;;;;;;;3.60;77.58;94071.77;828287;71;29134;-81
2021/12/12 14:46:22;;;;;;;7.95;6.55;;;;;;;3.54;78.38;94094.06;821129;71;31839;-78
